Port Allen, Louisiana
Current Conditions -  °F | °C
As of 3:53 PM on Saturday 20 Dec 2014 (Local Time) from KBTR Reporting Station
Overcast Overcast  
Wind Chill: 51°   Ceiling: 1000
Heat Index: 51°   Visibility: 10mi
Dew Point: 46°   Wind: 7mph
Humidity: 83%   Direction: 10°N
Pressure: 30.13"   Gusts: NA
Location:  30.46°N, 91.21°W
Report Text: KBTR 202153Z 01006KT 10SM OVC010 11/08 A3013 RMK AO2 SLP202 T01060078
Loading
Personal Weather Stations






























Interactive Weather Map New forecast layout! Learn more

10-Day Weather Forecast

Advertisements
Track Severe Weather on mobile